sensor_id;sensor_type;location;lat;lon;timestamp;pressure;altitude;pressure_sealevel;temperature;humidity
7802;BME280;3945;48.952;9.506;2022-08-21T00:02:17;98102.31;;;15.30;87.07
7802;BME280;3945;48.952;9.506;2022-08-21T00:04:44;98097.78;;;15.25;87.28
7802;BME280;3945;48.952;9.506;2022-08-21T00:07:12;98097.50;;;15.21;87.31
7802;BME280;3945;48.952;9.506;2022-08-21T00:09:38;98099.91;;;15.23;87.58
7802;BME280;3945;48.952;9.506;2022-08-21T00:12:05;98095.88;;;15.20;87.39
7802;BME280;3945;48.952;9.506;2022-08-21T00:14:32;98099.66;;;15.19;87.52
7802;BME280;3945;48.952;9.506;2022-08-21T00:17:00;98092.94;;;15.17;87.64
7802;BME280;3945;48.952;9.506;2022-08-21T00:19:27;98099.38;;;15.16;87.47
7802;BME280;3945;48.952;9.506;2022-08-21T00:21:53;98102.84;;;15.16;87.14
7802;BME280;3945;48.952;9.506;2022-08-21T00:24:21;98095.31;;;15.13;87.50
7802;BME280;3945;48.952;9.506;2022-08-21T00:26:47;98093.19;;;15.10;87.55
7802;BME280;3945;48.952;9.506;2022-08-21T00:29:13;98094.78;;;15.06;87.64
7802;BME280;3945;48.952;9.506;2022-08-21T00:31:40;98089.72;;;15.05;87.69
7802;BME280;3945;48.952;9.506;2022-08-21T00:34:08;98091.28;;;15.06;87.43
7802;BME280;3945;48.952;9.506;2022-08-21T00:36:35;98092.91;;;15.02;87.64
7802;BME280;3945;48.952;9.506;2022-08-21T00:39:02;98090.75;;;14.99;87.54
7802;BME280;3945;48.952;9.506;2022-08-21T00:41:28;98087.53;;;14.97;87.71
7802;BME280;3945;48.952;9.506;2022-08-21T00:43:55;98082.44;;;14.90;87.87
7802;BME280;3945;48.952;9.506;2022-08-21T00:46:21;98081.88;;;14.88;88.07
7802;BME280;3945;48.952;9.506;2022-08-21T00:48:48;98082.41;;;14.85;88.44
7802;BME280;3945;48.952;9.506;2022-08-21T00:51:17;98077.84;;;14.80;88.42
7802;BME280;3945;48.952;9.506;2022-08-21T00:53:47;98078.09;;;14.79;88.59
7802;BME280;3945;48.952;9.506;2022-08-21T00:56:17;98074.09;;;14.76;88.74
7802;BME280;3945;48.952;9.506;2022-08-21T00:58:43;98086.69;;;14.76;88.65
7802;BME280;3945;48.952;9.506;2022-08-21T01:01:10;98078.91;;;14.74;88.69
7802;BME280;3945;48.952;9.506;2022-08-21T01:03:37;98077.28;;;14.78;88.82
7802;BME280;3945;48.952;9.506;2022-08-21T01:06:04;98084.81;;;14.76;88.48
7802;BME280;3945;48.952;9.506;2022-08-21T01:08:32;98080.53;;;14.75;88.72
7802;BME280;3945;48.952;9.506;2022-08-21T01:10:58;98090.13;;;14.71;88.54
7802;BME280;3945;48.952;9.506;2022-08-21T01:13:26;98081.84;;;14.68;88.51
7802;BME280;3945;48.952;9.506;2022-08-21T01:15:54;98078.84;;;14.64;88.50
7802;BME280;3945;48.952;9.506;2022-08-21T01:18:21;98082.09;;;14.61;88.35
7802;BME280;3945;48.952;9.506;2022-08-21T01:23:33;98080.97;;;14.57;88.70
7802;BME280;3945;48.952;9.506;2022-08-21T01:26:01;98077.75;;;14.55;88.58
7802;BME280;3945;48.952;9.506;2022-08-21T01:28:27;98078.03;;;14.54;88.59
7802;BME280;3945;48.952;9.506;2022-08-21T01:30:57;98086.06;;;14.54;88.69
7802;BME280;3945;48.952;9.506;2022-08-21T01:33:24;98082.03;;;14.51;88.70
7802;BME280;3945;48.952;9.506;2022-08-21T01:35:51;98082.28;;;14.50;89.18
7802;BME280;3945;48.952;9.506;2022-08-21T01:38:17;98084.44;;;14.48;88.97
7802;BME280;3945;48.952;9.506;2022-08-21T01:40:45;98083.09;;;14.45;89.13
7802;BME280;3945;48.952;9.506;2022-08-21T01:43:11;98081.97;;;14.41;89.03
7802;BME280;3945;48.952;9.506;2022-08-21T01:45:37;98080.31;;;14.35;88.98
7802;BME280;3945;48.952;9.506;2022-08-21T01:48:04;98077.63;;;14.30;89.00
7802;BME280;3945;48.952;9.506;2022-08-21T01:50:30;98071.72;;;14.28;89.32
7802;BME280;3945;48.952;9.506;2022-08-21T01:52:56;98071.19;;;14.26;89.50
7802;BME280;3945;48.952;9.506;2022-08-21T01:55:23;98074.69;;;14.26;89.47
7802;BME280;3945;48.952;9.506;2022-08-21T01:57:51;98071.19;;;14.26;89.76
7802;BME280;3945;48.952;9.506;2022-08-21T02:00:18;98065.03;;;14.25;89.48
7802;BME280;3945;48.952;9.506;2022-08-21T02:02:47;98069.59;;;14.25;89.37
7802;BME280;3945;48.952;9.506;2022-08-21T02:05:14;98065.53;;;14.22;89.46
7802;BME280;3945;48.952;9.506;2022-08-21T02:07:41;98062.59;;;14.19;89.54
7802;BME280;3945;48.952;9.506;2022-08-21T02:10:09;98067.41;;;14.17;89.46
7802;BME280;3945;48.952;9.506;2022-08-21T02:12:36;98068.47;;;14.21;89.15
7802;BME280;3945;48.952;9.506;2022-08-21T02:15:04;98058.31;;;14.18;89.47
7802;BME280;3945;48.952;9.506;2022-08-21T02:17:36;98059.88;;;14.14;89.38
7802;BME280;3945;48.952;9.506;2022-08-21T02:20:03;98059.84;;;14.08;89.47
7802;BME280;3945;48.952;9.506;2022-08-21T02:22:29;98056.38;;;14.08;89.32
7802;BME280;3945;48.952;9.506;2022-08-21T02:24:56;98051.00;;;14.03;89.26
7802;BME280;3945;48.952;9.506;2022-08-21T02:27:22;98067.28;;;13.96;89.79
7802;BME280;3945;48.952;9.506;2022-08-21T02:29:49;98063.00;;;13.95;90.03
7802;BME280;3945;48.952;9.506;2022-08-21T02:32:16;98058.69;;;13.89;89.74
7802;BME280;3945;48.952;9.506;2022-08-21T02:34:42;98059.22;;;13.91;90.23
7802;BME280;3945;48.952;9.506;2022-08-21T02:37:09;98063.75;;;13.91;89.95
7802;BME280;3945;48.952;9.506;2022-08-21T02:39:35;98063.50;;;13.92;90.31
7802;BME280;3945;48.952;9.506;2022-08-21T02:42:01;98059.75;;;13.88;90.24
7802;BME280;3945;48.952;9.506;2022-08-21T02:44:28;98056.00;;;13.89;89.95
7802;BME280;3945;48.952;9.506;2022-08-21T02:46:54;98061.31;;;13.84;90.47
7802;BME280;3945;48.952;9.506;2022-08-21T02:49:22;98054.63;;;13.82;90.36
7802;BME280;3945;48.952;9.506;2022-08-21T02:51:48;98052.44;;;13.79;90.51
7802;BME280;3945;48.952;9.506;2022-08-21T02:54:14;98045.50;;;13.78;90.57
7802;BME280;3945;48.952;9.506;2022-08-21T02:56:41;98050.84;;;13.78;90.49
7802;BME280;3945;48.952;9.506;2022-08-21T02:59:07;98061.00;;;13.76;90.37
7802;BME280;3945;48.952;9.506;2022-08-21T03:01:33;98048.69;;;13.75;90.42
7802;BME280;3945;48.952;9.506;2022-08-21T03:04:02;98045.72;;;13.71;90.34
7802;BME280;3945;48.952;9.506;2022-08-21T03:06:29;98056.41;;;13.71;90.25
7802;BME280;3945;48.952;9.506;2022-08-21T03:08:56;98053.47;;;13.67;90.22
7802;BME280;3945;48.952;9.506;2022-08-21T03:11:22;98055.34;;;13.67;89.90
7802;BME280;3945;48.952;9.506;2022-08-21T03:13:49;98044.34;;;13.63;90.21
7802;BME280;3945;48.952;9.506;2022-08-21T03:16:15;98049.91;;;13.57;89.94
7802;BME280;3945;48.952;9.506;2022-08-21T03:18:41;98041.84;;;13.52;90.42
7802;BME280;3945;48.952;9.506;2022-08-21T03:21:07;98041.25;;;13.45;91.05
7802;BME280;3945;48.952;9.506;2022-08-21T03:23:35;98041.47;;;13.38;91.14
7802;BME280;3945;48.952;9.506;2022-08-21T03:26:04;98045.22;;;13.37;91.52
7802;BME280;3945;48.952;9.506;2022-08-21T03:28:31;98053.47;;;13.36;91.35
7802;BME280;3945;48.952;9.506;2022-08-21T03:30:57;98047.84;;;13.32;91.57
7802;BME280;3945;48.952;9.506;2022-08-21T03:33:23;98059.34;;;13.33;91.85
7802;BME280;3945;48.952;9.506;2022-08-21T03:35:55;98055.88;;;13.32;91.72
7802;BME280;3945;48.952;9.506;2022-08-21T03:38:23;98052.13;;;13.33;91.48
7802;BME280;3945;48.952;9.506;2022-08-21T03:40:50;98055.88;;;13.32;91.46
7802;BME280;3945;48.952;9.506;2022-08-21T03:43:17;98052.88;;;13.28;91.28
7802;BME280;3945;48.952;9.506;2022-08-21T03:45:43;98058.47;;;13.27;91.48
7802;BME280;3945;48.952;9.506;2022-08-21T03:48:09;98064.88;;;13.26;91.19
7802;BME280;3945;48.952;9.506;2022-08-21T03:50:37;98060.88;;;13.23;91.10
7802;BME280;3945;48.952;9.506;2022-08-21T03:53:03;98063.78;;;13.22;91.02
7802;BME280;3945;48.952;9.506;2022-08-21T03:55:30;98063.31;;;13.25;91.43
7802;BME280;3945;48.952;9.506;2022-08-21T03:57:58;98062.75;;;13.23;91.36
7802;BME280;3945;48.952;9.506;2022-08-21T04:00:24;98065.09;;;13.19;91.29
7802;BME280;3945;48.952;9.506;2022-08-21T04:02:50;98072.09;;;13.25;90.83
7802;BME280;3945;48.952;9.506;2022-08-21T04:05:17;98066.47;;;13.22;90.77
7802;BME280;3945;48.952;9.506;2022-08-21T04:07:52;98068.88;;;13.23;90.84
7802;BME280;3945;48.952;9.506;2022-08-21T04:10:18;98073.19;;;13.24;91.07
7802;BME280;3945;48.952;9.506;2022-08-21T04:12:45;98077.75;;;13.29;90.30
7802;BME280;3945;48.952;9.506;2022-08-21T04:15:12;98081.19;;;13.24;90.53
7802;BME280;3945;48.952;9.506;2022-08-21T04:17:39;98080.31;;;13.19;90.52
7802;BME280;3945;48.952;9.506;2022-08-21T04:20:06;98086.19;;;13.16;90.77
7802;BME280;3945;48.952;9.506;2022-08-21T04:22:32;98086.69;;;13.13;90.67
7802;BME280;3945;48.952;9.506;2022-08-21T04:24:59;98090.66;;;13.10;90.96
7802;BME280;3945;48.952;9.506;2022-08-21T04:27:25;98090.88;;;13.04;90.90
7802;BME280;3945;48.952;9.506;2022-08-21T04:29:51;98100.97;;;13.02;90.78
7802;BME280;3945;48.952;9.506;2022-08-21T04:32:22;98102.28;;;12.99;90.81
7802;BME280;3945;48.952;9.506;2022-08-21T04:34:48;98098.56;;;13.00;91.21
7802;BME280;3945;48.952;9.506;2022-08-21T04:37:15;98108.44;;;13.00;90.95
7802;BME280;3945;48.952;9.506;2022-08-21T04:39:41;98106.91;;;13.04;91.19
7802;BME280;3945;48.952;9.506;2022-08-21T04:42:08;98108.75;;;13.03;91.39
7802;BME280;3945;48.952;9.506;2022-08-21T04:44:34;98111.44;;;13.03;91.01
7802;BME280;3945;48.952;9.506;2022-08-21T04:47:00;98120.25;;;13.04;90.85
7802;BME280;3945;48.952;9.506;2022-08-21T04:49:28;98114.09;;;13.03;91.11
7802;BME280;3945;48.952;9.506;2022-08-21T04:51:56;98111.44;;;13.03;91.02
7802;BME280;3945;48.952;9.506;2022-08-21T04:54:22;98109.81;;;13.02;90.83
7802;BME280;3945;48.952;9.506;2022-08-21T04:56:49;98113.78;;;13.00;91.06
7802;BME280;3945;48.952;9.506;2022-08-21T04:59:17;98119.13;;;13.00;91.61
7802;BME280;3945;48.952;9.506;2022-08-21T05:01:45;98122.84;;;12.99;91.65
7802;BME280;3945;48.952;9.506;2022-08-21T05:04:12;98120.41;;;12.97;91.10
7802;BME280;3945;48.952;9.506;2022-08-21T05:06:40;98120.41;;;12.97;91.71
7802;BME280;3945;48.952;9.506;2022-08-21T05:09:07;98126.84;;;12.96;91.66
7802;BME280;3945;48.952;9.506;2022-08-21T05:11:35;98126.31;;;12.99;91.40
7802;BME280;3945;48.952;9.506;2022-08-21T05:14:02;98133.84;;;13.02;91.43
7802;BME280;3945;48.952;9.506;2022-08-21T05:16:28;98128.50;;;13.02;91.55
7802;BME280;3945;48.952;9.506;2022-08-21T05:18:55;98133.59;;;13.04;91.55
7802;BME280;3945;48.952;9.506;2022-08-21T05:21:21;98133.59;;;13.04;91.72
7802;BME280;3945;48.952;9.506;2022-08-21T05:23:49;98131.22;;;13.07;91.65
7802;BME280;3945;48.952;9.506;2022-08-21T05:26:15;98134.16;;;13.06;91.81
7802;BME280;3945;48.952;9.506;2022-08-21T05:28:41;98124.59;;;13.10;91.87
7802;BME280;3945;48.952;9.506;2022-08-21T05:31:08;98129.94;;;13.10;92.55
7802;BME280;3945;48.952;9.506;2022-08-21T05:33:34;98132.09;;;13.13;92.66
7802;BME280;3945;48.952;9.506;2022-08-21T05:36:00;98131.88;;;13.14;92.62
7802;BME280;3945;48.952;9.506;2022-08-21T05:38:27;98134.84;;;13.18;93.13
7802;BME280;3945;48.952;9.506;2022-08-21T05:40:55;98131.97;;;13.24;93.16
7802;BME280;3945;48.952;9.506;2022-08-21T05:43:21;98135.78;;;13.34;93.24
7802;BME280;3945;48.952;9.506;2022-08-21T05:45:47;98137.16;;;13.36;93.45
7802;BME280;3945;48.952;9.506;2022-08-21T05:48:14;98130.03;;;13.47;93.45
7802;BME280;3945;48.952;9.506;2022-08-21T05:50:41;98129.63;;;13.60;93.94
7802;BME280;3945;48.952;9.506;2022-08-21T05:53:08;98132.34;;;13.70;93.72
7802;BME280;3945;48.952;9.506;2022-08-21T05:55:35;98134.66;;;13.88;94.23
7802;BME280;3945;48.952;9.506;2022-08-21T05:58:03;98129.72;;;14.12;94.25
7802;BME280;3945;48.952;9.506;2022-08-21T06:00:30;98128.84;;;14.38;93.77
7802;BME280;3945;48.952;9.506;2022-08-21T06:02:57;98133.25;;;14.65;92.84
7802;BME280;3945;48.952;9.506;2022-08-21T06:05:23;98132.25;;;14.86;92.60
7802;BME280;3945;48.952;9.506;2022-08-21T06:07:50;98126.97;;;15.11;91.98
7802;BME280;3945;48.952;9.506;2022-08-21T06:10:16;98133.97;;;15.38;90.26
7802;BME280;3945;48.952;9.506;2022-08-21T06:12:42;98132.44;;;15.62;88.71
7802;BME280;3945;48.952;9.506;2022-08-21T06:15:10;98125.16;;;15.88;88.26
7802;BME280;3945;48.952;9.506;2022-08-21T06:17:36;98126.47;;;16.16;86.16
7802;BME280;3945;48.952;9.506;2022-08-21T06:20:03;98137.16;;;16.46;83.60
7802;BME280;3945;48.952;9.506;2022-08-21T06:22:30;98133.06;;;16.69;82.73
7802;BME280;3945;48.952;9.506;2022-08-21T06:24:56;98131.88;;;16.95;81.06
7802;BME280;3945;48.952;9.506;2022-08-21T06:27:23;98129.06;;;17.21;80.87
7802;BME280;3945;48.952;9.506;2022-08-21T06:29:49;98134.78;;;17.48;79.55
7802;BME280;3945;48.952;9.506;2022-08-21T06:32:17;98133.81;;;17.73;78.48
7802;BME280;3945;48.952;9.506;2022-08-21T06:34:43;98119.06;;;17.99;78.15
7802;BME280;3945;48.952;9.506;2022-08-21T06:37:09;98124.72;;;18.26;78.00
7802;BME280;3945;48.952;9.506;2022-08-21T06:39:36;98132.50;;;18.52;77.19
7802;BME280;3945;48.952;9.506;2022-08-21T06:42:02;98130.34;;;18.78;75.69
7802;BME280;3945;48.952;9.506;2022-08-21T06:44:29;98133.25;;;19.05;74.08
7802;BME280;3945;48.952;9.506;2022-08-21T06:46:55;98137.19;;;19.31;72.57
7802;BME280;3945;48.952;9.506;2022-08-21T06:49:23;98125.25;;;19.56;71.01
7802;BME280;3945;48.952;9.506;2022-08-21T06:51:49;98128.03;;;19.83;69.79
7802;BME280;3945;48.952;9.506;2022-08-21T06:54:16;98125.41;;;20.11;69.86
7802;BME280;3945;48.952;9.506;2022-08-21T06:56:42;98124.69;;;20.38;68.66
7802;BME280;3945;48.952;9.506;2022-08-21T06:59:08;98124.47;;;20.61;67.92
7802;BME280;3945;48.952;9.506;2022-08-21T07:01:35;98125.38;;;20.84;67.16
7802;BME280;3945;48.952;9.506;2022-08-21T07:04:01;98126.25;;;21.07;66.69
7802;BME280;3945;48.952;9.506;2022-08-21T07:06:29;98125.41;;;21.34;66.39
7802;BME280;3945;48.952;9.506;2022-08-21T07:08:55;98124.00;;;21.59;64.62
7802;BME280;3945;48.952;9.506;2022-08-21T07:11:22;98121.00;;;21.83;62.83
7802;BME280;3945;48.952;9.506;2022-08-21T07:13:49;98121.78;;;22.05;63.08
7802;BME280;3945;48.952;9.506;2022-08-21T07:16:17;98112.66;;;22.24;63.16
7802;BME280;3945;48.952;9.506;2022-08-21T07:18:44;98122.16;;;22.43;61.77
7802;BME280;3945;48.952;9.506;2022-08-21T07:21:10;98114.09;;;22.61;58.94
7802;BME280;3945;48.952;9.506;2022-08-21T07:23:39;98114.94;;;22.78;56.84
7802;BME280;3945;48.952;9.506;2022-08-21T07:26:06;98115.00;;;22.95;57.92
7802;BME280;3945;48.952;9.506;2022-08-21T07:28:32;98108.31;;;23.10;57.52
7802;BME280;3945;48.952;9.506;2022-08-21T07:30:59;98108.81;;;23.29;57.13
7802;BME280;3945;48.952;9.506;2022-08-21T07:33:28;98103.22;;;23.43;54.40
7802;BME280;3945;48.952;9.506;2022-08-21T07:35:54;98111.22;;;23.57;55.93
7802;BME280;3945;48.952;9.506;2022-08-21T07:38:21;98106.91;;;23.73;54.33
7802;BME280;3945;48.952;9.506;2022-08-21T07:40:49;98103.69;;;23.80;56.26
7802;BME280;3945;48.952;9.506;2022-08-21T07:43:16;98102.69;;;23.93;56.33
7802;BME280;3945;48.952;9.506;2022-08-21T07:45:43;98110.84;;;24.01;55.39
7802;BME280;3945;48.952;9.506;2022-08-21T07:48:09;98098.84;;;24.20;54.52
7802;BME280;3945;48.952;9.506;2022-08-21T07:50:36;98089.97;;;24.31;54.52
7802;BME280;3945;48.952;9.506;2022-08-21T07:53:02;98096.50;;;24.47;53.24
7802;BME280;3945;48.952;9.506;2022-08-21T07:55:29;98094.13;;;24.67;51.54
7802;BME280;3945;48.952;9.506;2022-08-21T07:57:56;98093.28;;;24.75;52.77
7802;BME280;3945;48.952;9.506;2022-08-21T08:00:24;98095.78;;;24.88;54.44
7802;BME280;3945;48.952;9.506;2022-08-21T08:02:51;98100.88;;;24.99;54.63
7802;BME280;3945;48.952;9.506;2022-08-21T08:05:19;98095.03;;;25.09;53.88
7802;BME280;3945;48.952;9.506;2022-08-21T08:07:46;98093.16;;;25.21;53.01
7802;BME280;3945;48.952;9.506;2022-08-21T08:10:12;98091.25;;;25.43;52.46
7802;BME280;3945;48.952;9.506;2022-08-21T08:12:40;98081.75;;;25.49;51.31
7802;BME280;3945;48.952;9.506;2022-08-21T08:15:10;98084.38;;;25.57;51.61
7802;BME280;3945;48.952;9.506;2022-08-21T08:17:37;98083.75;;;25.60;52.32
7802;BME280;3945;48.952;9.506;2022-08-21T08:20:04;98085.94;;;25.67;51.88
7802;BME280;3945;48.952;9.506;2022-08-21T08:22:31;98077.88;;;25.71;51.60
7802;BME280;3945;48.952;9.506;2022-08-21T08:24:57;98076.78;;;25.84;51.63
7802;BME280;3945;48.952;9.506;2022-08-21T08:27:24;98068.72;;;25.87;55.64
7802;BME280;3945;48.952;9.506;2022-08-21T08:29:51;98073.09;;;26.00;50.95
7802;BME280;3945;48.952;9.506;2022-08-21T08:32:18;98071.03;;;26.10;51.27
7802;BME280;3945;48.952;9.506;2022-08-21T08:34:45;98060.25;;;26.13;50.33
7802;BME280;3945;48.952;9.506;2022-08-21T08:37:13;98060.94;;;26.22;52.80
7802;BME280;3945;48.952;9.506;2022-08-21T08:39:40;98060.44;;;26.29;52.22
7802;BME280;3945;48.952;9.506;2022-08-21T08:42:07;98056.22;;;26.43;50.59
7802;BME280;3945;48.952;9.506;2022-08-21T08:44:35;98055.88;;;26.57;50.94
7802;BME280;3945;48.952;9.506;2022-08-21T08:47:01;98054.72;;;26.70;50.87
7802;BME280;3945;48.952;9.506;2022-08-21T08:49:30;98057.09;;;26.84;51.18
7802;BME280;3945;48.952;9.506;2022-08-21T08:51:59;98051.63;;;26.96;50.29
7802;BME280;3945;48.952;9.506;2022-08-21T08:54:27;98046.59;;;27.10;47.09
7802;BME280;3945;48.952;9.506;2022-08-21T08:56:57;98053.59;;;27.24;48.19
7802;BME280;3945;48.952;9.506;2022-08-21T08:59:25;98054.06;;;27.26;48.57
7802;BME280;3945;48.952;9.506;2022-08-21T09:01:52;98058.34;;;27.39;49.48
7802;BME280;3945;48.952;9.506;2022-08-21T09:04:20;98048.16;;;27.51;49.09
7802;BME280;3945;48.952;9.506;2022-08-21T09:07:01;98049.31;;;27.50;47.75
7802;BME280;3945;48.952;9.506;2022-08-21T09:09:34;98050.91;;;27.51;48.99
7802;BME280;3945;48.952;9.506;2022-08-21T09:12:06;98045.28;;;27.60;48.29
7802;BME280;3945;48.952;9.506;2022-08-21T09:14:47;98031.72;;;27.64;46.55
7802;BME280;3945;48.952;9.506;2022-08-21T09:17:19;98035.00;;;27.69;48.44
7802;BME280;3945;48.952;9.506;2022-08-21T09:19:54;98028.22;;;27.79;48.06
7802;BME280;3945;48.952;9.506;2022-08-21T09:22:28;98024.59;;;27.90;46.59
7802;BME280;3945;48.952;9.506;2022-08-21T09:24:59;98027.53;;;27.97;46.34
7802;BME280;3945;48.952;9.506;2022-08-21T09:27:34;98026.03;;;28.00;48.60
7802;BME280;3945;48.952;9.506;2022-08-21T09:30:02;98022.84;;;28.14;46.88
7802;BME280;3945;48.952;9.506;2022-08-21T09:32:31;98012.56;;;28.23;46.67
7802;BME280;3945;48.952;9.506;2022-08-21T09:34:59;98019.16;;;28.38;46.66
7802;BME280;3945;48.952;9.506;2022-08-21T09:37:27;98017.19;;;28.54;45.92
7802;BME280;3945;48.952;9.506;2022-08-21T09:39:55;98017.28;;;28.57;45.53
7802;BME280;3945;48.952;9.506;2022-08-21T09:42:23;98022.03;;;28.60;43.91
7802;BME280;3945;48.952;9.506;2022-08-21T09:45:00;98023.63;;;28.61;44.43
7802;BME280;3945;48.952;9.506;2022-08-21T09:47:30;98015.78;;;28.60;45.71
7802;BME280;3945;48.952;9.506;2022-08-21T09:49:56;98019.59;;;28.74;42.63
7802;BME280;3945;48.952;9.506;2022-08-21T09:52:34;98012.81;;;28.68;43.48
7802;BME280;3945;48.952;9.506;2022-08-21T09:55:00;98013.56;;;28.81;44.68
7802;BME280;3945;48.952;9.506;2022-08-21T09:57:47;98015.34;;;28.93;44.63
7802;BME280;3945;48.952;9.506;2022-08-21T10:00:15;98012.13;;;29.06;42.01
7802;BME280;3945;48.952;9.506;2022-08-21T10:02:43;98009.59;;;29.17;43.55
7802;BME280;3945;48.952;9.506;2022-08-21T10:05:15;98004.78;;;29.30;42.37
7802;BME280;3945;48.952;9.506;2022-08-21T10:07:43;98004.03;;;29.13;40.59
7802;BME280;3945;48.952;9.506;2022-08-21T10:10:14;97995.59;;;29.22;40.83
7802;BME280;3945;48.952;9.506;2022-08-21T10:12:42;97988.88;;;30.00;40.57
7802;BME280;3945;48.952;9.506;2022-08-21T10:15:13;97986.84;;;30.73;37.21
7802;BME280;3945;48.952;9.506;2022-08-21T10:17:45;97987.41;;;31.49;36.88
7802;BME280;3945;48.952;9.506;2022-08-21T10:20:17;97981.59;;;31.94;35.10
7802;BME280;3945;48.952;9.506;2022-08-21T10:22:48;97972.44;;;32.24;34.22
7802;BME280;3945;48.952;9.506;2022-08-21T10:25:21;97970.28;;;32.57;34.03
7802;BME280;3945;48.952;9.506;2022-08-21T10:27:52;97979.97;;;32.92;36.08
7802;BME280;3945;48.952;9.506;2022-08-21T10:30:32;97977.38;;;33.20;34.47
7802;BME280;3945;48.952;9.506;2022-08-21T10:33:06;97975.47;;;33.53;35.11
7802;BME280;3945;48.952;9.506;2022-08-21T10:35:37;97977.94;;;33.90;33.65
7802;BME280;3945;48.952;9.506;2022-08-21T10:38:29;97972.41;;;33.97;32.32
7802;BME280;3945;48.952;9.506;2022-08-21T10:41:01;97964.88;;;34.08;32.17
7802;BME280;3945;48.952;9.506;2022-08-21T10:43:32;97969.25;;;34.37;31.01
7802;BME280;3945;48.952;9.506;2022-08-21T10:46:05;97965.72;;;34.33;33.01
7802;BME280;3945;48.952;9.506;2022-08-21T10:48:35;97962.88;;;34.58;32.16
7802;BME280;3945;48.952;9.506;2022-08-21T10:51:04;97954.97;;;34.74;31.33
7802;BME280;3945;48.952;9.506;2022-08-21T10:53:45;97951.03;;;34.75;29.81
7802;BME280;3945;48.952;9.506;2022-08-21T10:56:15;97949.81;;;34.66;30.32
7802;BME280;3945;48.952;9.506;2022-08-21T10:58:45;97949.88;;;34.55;30.43
7802;BME280;3945;48.952;9.506;2022-08-21T11:01:13;97946.69;;;34.78;30.60
7802;BME280;3945;48.952;9.506;2022-08-21T11:03:42;97941.56;;;34.62;29.99
7802;BME280;3945;48.952;9.506;2022-08-21T11:06:11;97943.13;;;34.60;31.88
7802;BME280;3945;48.952;9.506;2022-08-21T11:08:39;97943.91;;;34.67;30.60
7802;BME280;3945;48.952;9.506;2022-08-21T11:11:10;97939.16;;;34.75;31.32
7802;BME280;3945;48.952;9.506;2022-08-21T11:13:39;97939.13;;;34.89;30.03
7802;BME280;3945;48.952;9.506;2022-08-21T11:16:07;97930.88;;;34.68;28.94
7802;BME280;3945;48.952;9.506;2022-08-21T11:18:37;97923.47;;;34.36;29.77
7802;BME280;3945;48.952;9.506;2022-08-21T11:21:12;97930.16;;;34.39;30.62
7802;BME280;3945;48.952;9.506;2022-08-21T11:23:43;97925.41;;;34.46;30.05
7802;BME280;3945;48.952;9.506;2022-08-21T11:26:13;97923.81;;;34.49;29.23
7802;BME280;3945;48.952;9.506;2022-08-21T11:28:43;97921.44;;;34.44;29.47
7802;BME280;3945;48.952;9.506;2022-08-21T11:31:16;97925.41;;;34.43;30.34
7802;BME280;3945;48.952;9.506;2022-08-21T11:33:47;97921.03;;;34.53;29.62
7802;BME280;3945;48.952;9.506;2022-08-21T11:36:18;97916.31;;;34.46;29.56
7802;BME280;3945;48.952;9.506;2022-08-21T11:38:49;97915.44;;;34.67;30.47
7802;BME280;3945;48.952;9.506;2022-08-21T11:41:23;97907.56;;;34.79;29.72
7802;BME280;3945;48.952;9.506;2022-08-21T11:43:53;97909.94;;;34.70;29.37
7802;BME280;3945;48.952;9.506;2022-08-21T11:46:24;97899.69;;;34.60;31.10
7802;BME280;3945;48.952;9.506;2022-08-21T11:48:55;97900.44;;;34.68;29.52
7802;BME280;3945;48.952;9.506;2022-08-21T11:51:27;97902.47;;;34.53;29.23
7802;BME280;3945;48.952;9.506;2022-08-21T11:53:57;97906.06;;;34.39;29.10
7802;BME280;3945;48.952;9.506;2022-08-21T11:56:30;97908.44;;;34.30;29.24
7802;BME280;3945;48.952;9.506;2022-08-21T11:58:59;97902.91;;;34.16;29.60
7802;BME280;3945;48.952;9.506;2022-08-21T12:01:28;97895.03;;;33.54;29.79
7802;BME280;3945;48.952;9.506;2022-08-21T12:03:57;97889.19;;;32.55;31.04
7802;BME280;3945;48.952;9.506;2022-08-21T12:06:29;97895.69;;;32.98;30.77
7802;BME280;3945;48.952;9.506;2022-08-21T12:08:57;97891.03;;;33.30;30.76
7802;BME280;3945;48.952;9.506;2022-08-21T12:11:24;97893.44;;;33.46;30.45
7802;BME280;3945;48.952;9.506;2022-08-21T12:13:56;97895.41;;;33.46;29.61
7802;BME280;3945;48.952;9.506;2022-08-21T12:16:30;97893.47;;;33.50;28.90
7802;BME280;3945;48.952;9.506;2022-08-21T12:19:04;97896.22;;;33.50;29.78
7802;BME280;3945;48.952;9.506;2022-08-21T12:21:31;97893.47;;;33.57;29.66
7802;BME280;3945;48.952;9.506;2022-08-21T12:24:03;97897.00;;;33.64;29.91
7802;BME280;3945;48.952;9.506;2022-08-21T12:26:30;97895.44;;;33.74;29.41
7802;BME280;3945;48.952;9.506;2022-08-21T12:29:10;97900.59;;;33.90;29.29
7802;BME280;3945;48.952;9.506;2022-08-21T12:31:46;97895.84;;;33.76;30.47
7802;BME280;3945;48.952;9.506;2022-08-21T12:34:13;97895.81;;;33.58;29.03
7802;BME280;3945;48.952;9.506;2022-08-21T12:36:42;97879.66;;;33.71;29.54
7802;BME280;3945;48.952;9.506;2022-08-21T12:39:11;97883.59;;;33.56;31.11
7802;BME280;3945;48.952;9.506;2022-08-21T12:41:41;97877.72;;;33.79;29.07
7802;BME280;3945;48.952;9.506;2022-08-21T12:44:12;97875.69;;;33.51;29.26
7802;BME280;3945;48.952;9.506;2022-08-21T12:46:43;97870.56;;;33.35;29.17
7802;BME280;3945;48.952;9.506;2022-08-21T12:49:13;97870.56;;;33.42;29.81
7802;BME280;3945;48.952;9.506;2022-08-21T12:51:48;97866.22;;;33.45;31.30
7802;BME280;3945;48.952;9.506;2022-08-21T12:54:22;97867.03;;;33.66;29.38
7802;BME280;3945;48.952;9.506;2022-08-21T12:56:55;97864.66;;;33.72;28.41
7802;BME280;3945;48.952;9.506;2022-08-21T12:59:23;97859.53;;;33.60;26.88
7802;BME280;3945;48.952;9.506;2022-08-21T13:01:50;97851.28;;;33.74;28.04
7802;BME280;3945;48.952;9.506;2022-08-21T13:04:18;97854.41;;;33.51;27.66
7802;BME280;3945;48.952;9.506;2022-08-21T13:06:46;97856.38;;;33.47;27.69
7802;BME280;3945;48.952;9.506;2022-08-21T13:09:14;97857.97;;;33.48;29.05
7802;BME280;3945;48.952;9.506;2022-08-21T13:11:42;97852.03;;;33.53;29.53
7802;BME280;3945;48.952;9.506;2022-08-21T13:14:13;97855.56;;;33.50;29.80
7802;BME280;3945;48.952;9.506;2022-08-21T13:16:42;97857.97;;;33.55;29.57
7802;BME280;3945;48.952;9.506;2022-08-21T13:19:10;97853.63;;;33.61;27.75
7802;BME280;3945;48.952;9.506;2022-08-21T13:21:39;97854.00;;;33.31;27.67
7802;BME280;3945;48.952;9.506;2022-08-21T13:24:13;97862.63;;;33.12;28.18
7802;BME280;3945;48.952;9.506;2022-08-21T13:26:40;97864.56;;;33.15;28.26
7802;BME280;3945;48.952;9.506;2022-08-21T13:29:07;97850.44;;;33.27;28.90
7802;BME280;3945;48.952;9.506;2022-08-21T13:31:35;97850.41;;;33.17;28.01